Strona główna
METAR-TAF:

METAR-TAF

Lotnisko :

Port lotniczy Svalbard

Longyearbyen, Norwegia

Szerokość geograficzna: 78-15N, Długość geograficzna: 015-28E, wysokość: 2 m

Aktualna obserwacja pogody

Raport powstał 39 minut temu, godzina 21:20 UTC
Wiatr 13 kt od zachodnio-południowy zachód
Temperatura 4°C
Wilgotność 75%
Ciśnienie 1022 hPa
Widzialność 10 km lub więcej
Mało chmury na wysokości 600 ft
Rozproszone chmury na wysokości 3400 ft
Przerywane chmury na wysokości 4700 ft

METAR: ENSB 042120Z 25013KT 9999 FEW006 SCT034 BKN047 04/M00 Q1022 RMK WIND 1400FT 26004KT

czas: 23:59 (21:59 UTC)

Prognoza

Prognoza ważna od 04 godzina 21 UTC do 05 godzina 18 UTC
Wiatr 10 kt od zachód
Widzialność 10 km lub więcej
Mało chmury na wysokości 3000 ft
Przerywane chmury na wysokości 6000 ft
Stopniowe zmiany
od 04 godzina 21 UTC do 04 godzina 24 UTC
Wiatr 8 kt od północno-północny wschód

TAF: ENSB 0421/0518 27010KT 9999 FEW030 BKN060 BECMG 0421/0424 03008KT

Obserwacja i prognoza pogody dla ponad 4000 lotnisk (raport METAR i TAF).

Dostępne stacje oznaczono żółtymi i czerwonymi punktami na mapie.

Najedź kursorem aby zobaczyć nazwę stacji.

Kliknij aby zobaczyć obserwacje i prognozy pogody.

Aby zmienić mapę: kliknij na zielony przycisk z czarnym krzyżykiem, aby powiększyć; na zielony przycisk z myślnikiem, aby pomniejszyć; na zielone strzałki, aby przejść do map sąsiednich.


METAR-TAF: